CST,Max TemperatureF,Mean TemperatureF,Min TemperatureF,Max Dew PointF,MeanDew PointF,Min DewpointF,Max Humidity, Mean Humidity, Min Humidity, Max Sea Level PressureIn, Mean Sea Level PressureIn, Min Sea Level PressureIn, Max VisibilityMiles, Mean VisibilityMiles, Min VisibilityMiles, Max Wind SpeedMPH, Mean Wind SpeedMPH, Max Gust SpeedMPH,PrecipitationIn, CloudCover, Events, WindDirDegrees
2012-11-1,77,56,35,39,33,28,81,51,21,30.05,29.98,29.90,10,10,10,10,2,,0.00,0,,165
2012-11-2,68,56,44,43,38,34,76,58,40,30.09,29.88,29.79,10,10,9,21,10,25,0.00,0,,40
2012-11-3,60,46,33,37,34,30,87,66,39,30.25,30.18,30.09,10,9,6,14,9,,0.00,0,,17
2012-11-4,69,51,33,37,33,28,81,54,28,30.21,30.11,30.00,10,10,10,21,8,25,0.00,0,,228
2012-11-5,55,48,42,36,34,30,71,56,44,30.20,30.15,30.11,10,10,10,21,11,31,0.00,2,,334
2012-11-6,,,,,,,,,,,,,,,,,,,0.00,,,-1
2012-11-7,66,58,50,27,25,25,37,31,21,30.02,29.99,29.96,10,10,10,18,15,24,0.00,0,,148
2012-11-8,69,56,41,39,33,25,70,47,33,29.96,29.85,29.79,10,10,7,18,12,24,0.00,0,,158
2012-11-9,82,58,33,52,40,27,87,57,28,29.80,29.70,29.60,10,10,10,26,9,33,0.00,0,,201
2012-11-10,78,61,42,55,48,36,94,56,40,29.76,29.61,29.48,10,10,3,38,23,56,1.23,1,Thunderstorm,192
2012-11-11,42,34,24,36,19,12,81,59,36,30.28,30.04,29.76,10,10,10,24,17,31,1.23,2,,332
2012-11-12,50,36,23,21,18,14,74,54,24,30.42,30.36,30.28,10,10,10,17,9,21,0.00,0,,259
2012-11-13,55,40,26,28,23,19,74,55,33,30.38,30.30,30.21,10,10,10,21,10,26,0.00,0,,181
2012-11-14,55,40,24,30,25,19,86,62,33,30.32,30.24,30.17,10,10,9,12,4,,0.00,0,,150
2012-11-15,57,44,30,34,28,23,81,62,33,30.40,30.26,30.15,10,10,10,14,4,16,0.00,0,,69
2012-11-16,60,42,24,37,30,19,87,66,39,30.41,30.34,30.26,10,10,10,16,7,22,0.00,0,,181
2012-11-17,64,53,42,39,33,28,61,50,37,30.26,30.17,30.09,10,10,10,30,18,38,0.00,0,,174
2012-11-18,62,52,42,39,34,27,76,52,42,30.14,30.04,29.96,10,10,10,28,16,34,0.00,0,,171
2012-11-19,71,50,30,39,35,28,93,63,27,30.19,30.11,30.02,10,9,0,12,6,16,0.00,0,,299
2012-11-20,69,50,32,39,33,27,81,60,31,30.27,30.20,30.16,10,10,10,13,6,,0.00,0,,223
2012-11-21,73,58,42,48,39,34,87,53,25,30.17,30.03,29.85,10,10,10,32,15,38,0.00,0,,192
2012-11-22,73,55,35,46,37,25,76,50,20,30.38,30.00,29.77,10,10,10,26,15,34,0.00,0,,315
2012-11-23,44,34,24,25,18,16,69,53,34,30.59,30.48,30.38,10,10,10,17,9,23,0.00,0,,333
2012-11-24,64,44,24,25,21,16,74,45,21,30.36,30.06,29.85,10,10,10,23,12,29,0.00,0,,198
2012-11-25,55,44,32,34,27,19,75,55,44,30.01,29.92,29.86,10,10,10,17,10,21,0.00,0,,35
2012-11-26,42,30,17,27,22,12,86,70,46,30.47,30.27,30.01,10,10,6,23,13,31,0.00,0,,23
2012-11-27,48,32,15,27,19,10,93,67,40,30.45,30.30,30.17,10,10,8,23,7,30,0.00,0,,196
2012-11-28,57,37,17,30,23,12,86,65,33,30.32,30.22,30.05,10,10,10,20,5,24,0.00,0,,168
2012-11-29,57,38,19,37,27,16,93,71,36,30.05,30.00,29.94,10,9,2,10,4,,0.00,0,,227
2012-11-30,62,43,24,43,29,18,87,66,30,30.08,30.00,29.89,10,9,2,15,6,,0.00,0,,138